createdAt,value
2019-03-30T00:00:41.413Z,24.57
2019-03-30T00:03:09.861Z,26.27
2019-03-30T00:05:38.772Z,25.10
2019-03-30T00:08:07.317Z,24.20
2019-03-30T00:10:35.843Z,24.23
2019-03-30T00:13:04.403Z,24.97
2019-03-30T00:15:33.008Z,25.90
2019-03-30T00:18:01.558Z,28.40
2019-03-30T00:20:30.148Z,26.37
2019-03-30T00:22:58.613Z,25.37
2019-03-30T00:25:27.059Z,25.63
2019-03-30T00:27:55.581Z,23.93
2019-03-30T00:30:24.043Z,26.80
2019-03-30T00:32:52.502Z,25.93
2019-03-30T00:35:20.995Z,23.97
2019-03-30T00:37:49.530Z,27.53
2019-03-30T00:40:18.018Z,27.40
2019-03-30T00:42:46.567Z,24.43
2019-03-30T00:45:15.099Z,26.77
2019-03-30T00:47:43.558Z,27.13
2019-03-30T00:50:12.266Z,30.27
2019-03-30T00:52:40.728Z,27.67
2019-03-30T00:55:09.365Z,27.90
2019-03-30T00:57:40.712Z,28.23
2019-03-30T01:00:09.885Z,25.63
2019-03-30T01:02:38.410Z,25.53
2019-03-30T01:05:07.454Z,27.73
2019-03-30T01:07:35.958Z,25.03
2019-03-30T01:10:06.078Z,24.70
2019-03-30T01:12:34.773Z,28.50
2019-03-30T01:15:05.049Z,27.17
2019-03-30T01:17:33.517Z,29.23
2019-03-30T01:20:03.423Z,26.00
2019-03-30T01:22:51.737Z,24.10
2019-03-30T01:25:20.348Z,28.47
2019-03-30T01:27:48.802Z,27.30
2019-03-30T01:30:23.468Z,27.33
2019-03-30T01:32:47.605Z,27.93
2019-03-30T01:35:16.192Z,30.87
2019-03-30T01:37:44.889Z,32.00
2019-03-30T01:40:13.516Z,28.37
2019-03-30T01:42:42.038Z,29.00
2019-03-30T01:45:10.735Z,28.40
2019-03-30T01:47:58.890Z,32.87
2019-03-30T01:50:27.383Z,29.60
2019-03-30T01:52:55.883Z,27.40
2019-03-30T01:55:24.353Z,30.90
2019-03-30T01:57:52.804Z,30.87
2019-03-30T02:00:21.265Z,31.03
2019-03-30T02:02:49.768Z,37.23
2019-03-30T02:05:18.223Z,31.93
2019-03-30T02:07:46.724Z,29.50
2019-03-30T02:10:18.383Z,35.73
2019-03-30T02:12:46.839Z,32.07
2019-03-30T02:15:15.437Z,32.47
2019-03-30T02:17:43.936Z,37.10
2019-03-30T02:20:39.398Z,35.40
2019-03-30T02:23:08.715Z,38.90
2019-03-30T02:25:37.336Z,33.70
2019-03-30T02:28:07.206Z,32.70
2019-03-30T02:30:36.342Z,38.13
2019-03-30T02:33:05.034Z,37.33
2019-03-30T02:35:33.492Z,41.20
2019-03-30T02:38:01.984Z,38.97
2019-03-30T02:40:30.680Z,34.13
2019-03-30T02:43:18.518Z,36.50
2019-03-30T02:45:46.980Z,36.87
2019-03-30T02:48:15.507Z,39.10
2019-03-30T02:50:50.174Z,38.77
2019-03-30T02:53:14.224Z,36.77
2019-03-30T02:55:42.823Z,39.00
2019-03-30T02:58:11.315Z,40.57
2019-03-30T03:00:39.854Z,43.33
2019-03-30T03:03:08.465Z,39.87
2019-03-30T03:05:37.132Z,40.67
2019-03-30T03:08:07.253Z,37.63
2019-03-30T03:10:35.885Z,46.93
2019-03-30T03:13:04.444Z,42.30
2019-03-30T03:15:32.926Z,45.10
2019-03-30T03:18:01.441Z,42.97
2019-03-30T03:20:29.956Z,43.20
2019-03-30T03:22:58.526Z,43.30
2019-03-30T03:25:27.061Z,50.37
2019-03-30T03:27:55.723Z,48.97
2019-03-30T03:30:24.260Z,45.47
2019-03-30T03:32:52.788Z,48.77
2019-03-30T03:35:21.471Z,48.23
2019-03-30T03:37:49.923Z,53.60
2019-03-30T03:40:18.460Z,46.20
2019-03-30T03:42:47.311Z,50.90
2019-03-30T03:45:15.853Z,49.10
2019-03-30T03:47:44.389Z,48.80
2019-03-30T03:50:21.484Z,53.87
2019-03-30T03:52:50.281Z,53.93
2019-03-30T03:55:18.900Z,52.60
2019-03-30T03:57:47.831Z,50.57
2019-03-30T04:00:16.375Z,52.03
2019-03-30T04:02:45.571Z,50.17
2019-03-30T04:05:14.150Z,54.20
2019-03-30T04:07:43.288Z,51.70
2019-03-30T04:10:12.159Z,45.83
2019-03-30T04:12:43.529Z,46.23
2019-03-30T04:15:33.014Z,55.07
2019-03-30T04:18:22.431Z,48.00
2019-03-30T04:20:50.939Z,48.93
2019-03-30T04:23:19.464Z,51.87
2019-03-30T04:25:48.185Z,49.90
2019-03-30T04:28:16.769Z,52.30
2019-03-30T04:30:45.345Z,50.97
2019-03-30T04:33:13.880Z,58.23
2019-03-30T04:35:42.482Z,56.13
2019-03-30T04:38:14.289Z,55.67
2019-03-30T04:40:41.203Z,50.53
2019-03-30T04:43:09.745Z,54.67
2019-03-30T04:45:38.198Z,54.20
2019-03-30T04:48:07.063Z,57.47
2019-03-30T04:50:35.597Z,54.23
2019-03-30T04:53:04.128Z,55.17
2019-03-30T04:55:32.698Z,55.20
2019-03-30T04:58:01.229Z,55.10
2019-03-30T05:00:29.672Z,57.27
2019-03-30T05:02:58.268Z,54.57
2019-03-30T05:05:26.736Z,52.83
2019-03-30T05:07:55.255Z,54.60
2019-03-30T05:10:23.772Z,52.70
2019-03-30T05:12:52.229Z,56.30
2019-03-30T05:15:20.696Z,49.27
2019-03-30T05:17:49.246Z,57.80
2019-03-30T05:20:17.710Z,54.13
2019-03-30T05:22:46.211Z,54.43
2019-03-30T05:25:14.793Z,57.37
2019-03-30T05:27:43.326Z,55.80
2019-03-30T05:30:31.227Z,60.63
2019-03-30T05:33:05.965Z,52.07
2019-03-30T05:35:29.872Z,57.83
2019-03-30T05:38:01.332Z,53.47
2019-03-30T05:40:28.676Z,50.70
2019-03-30T05:42:57.212Z,55.30
2019-03-30T05:45:25.795Z,55.23
2019-03-30T05:47:54.341Z,50.50
2019-03-30T05:50:22.827Z,46.53
2019-03-30T05:52:51.327Z,48.13
2019-03-30T05:55:19.801Z,49.87
2019-03-30T05:57:48.325Z,51.53
2019-03-30T06:00:19.246Z,43.17
2019-03-30T06:02:47.756Z,50.50
2019-03-30T06:05:16.247Z,42.93
2019-03-30T06:07:44.776Z,43.53
2019-03-30T06:10:13.364Z,45.07
2019-03-30T06:12:41.823Z,43.73
2019-03-30T06:15:29.675Z,49.33
2019-03-30T06:17:58.179Z,42.50
2019-03-30T06:20:26.647Z,45.67
2019-03-30T06:22:55.145Z,40.80
2019-03-30T06:25:23.769Z,42.83
2019-03-30T06:27:52.396Z,42.17
2019-03-30T06:30:26.584Z,42.97
2019-03-30T06:32:55.121Z,44.37
2019-03-30T06:35:23.635Z,45.97
2019-03-30T06:37:52.355Z,46.40
2019-03-30T06:40:20.904Z,46.17
2019-03-30T06:42:49.460Z,41.07
2019-03-30T06:45:18.115Z,41.87
2019-03-30T06:47:46.563Z,40.23
2019-03-30T06:50:15.464Z,47.73
2019-03-30T06:52:56.680Z,39.33
2019-03-30T06:55:14.323Z,40.07
2019-03-30T06:57:42.844Z,38.37
2019-03-30T07:00:12.284Z,38.67
2019-03-30T07:02:41.796Z,37.63
2019-03-30T07:05:10.398Z,34.70
2019-03-30T07:07:39.783Z,39.33
2019-03-30T07:10:09.935Z,35.50
2019-03-30T07:12:40.311Z,37.40
2019-03-30T07:15:10.852Z,36.03
2019-03-30T07:17:47.116Z,35.03
2019-03-30T07:20:29.380Z,35.60
2019-03-30T07:23:11.351Z,34.83
2019-03-30T07:25:28.628Z,36.63
2019-03-30T07:27:57.488Z,31.47
2019-03-30T07:30:26.088Z,30.33
2019-03-30T07:32:54.556Z,34.77
2019-03-30T07:35:23.141Z,36.60
2019-03-30T07:37:51.682Z,32.87
2019-03-30T07:40:20.199Z,35.07
2019-03-30T07:42:48.701Z,36.77
2019-03-30T07:45:17.510Z,29.63
2019-03-30T07:47:45.977Z,30.73
2019-03-30T07:50:15.013Z,30.87
2019-03-30T07:52:43.553Z,30.37
2019-03-30T07:55:12.293Z,29.50
2019-03-30T07:57:40.859Z,28.53
2019-03-30T08:00:30.839Z,27.33
2019-03-30T08:02:58.965Z,31.80
2019-03-30T08:05:27.561Z,28.03
2019-03-30T08:07:56.102Z,28.83
2019-03-30T08:10:24.680Z,31.30
2019-03-30T08:12:53.223Z,26.80
2019-03-30T08:15:21.664Z,28.40
2019-03-30T08:17:50.147Z,28.97
2019-03-30T08:20:18.683Z,29.40
2019-03-30T08:22:47.143Z,27.63
2019-03-30T08:25:15.795Z,29.63
2019-03-30T08:27:44.733Z,28.40
2019-03-30T08:30:13.591Z,27.57
2019-03-30T08:32:42.105Z,29.17
2019-03-30T08:35:10.796Z,30.47
2019-03-30T08:37:39.353Z,29.47
2019-03-30T08:40:09.003Z,33.50
2019-03-30T08:42:37.467Z,31.70
2019-03-30T08:45:07.579Z,28.87
2019-03-30T08:47:36.134Z,27.87
2019-03-30T08:50:08.872Z,29.70
2019-03-30T08:52:37.392Z,30.00
2019-03-30T08:55:08.424Z,29.80
2019-03-30T08:57:36.880Z,29.13
2019-03-30T09:00:06.285Z,32.63
2019-03-30T09:02:34.951Z,26.87
2019-03-30T09:05:03.949Z,30.23
2019-03-30T09:07:32.413Z,30.13
2019-03-30T09:10:01.001Z,30.20
2019-03-30T09:12:29.559Z,28.43
2019-03-30T09:14:58.012Z,30.40
2019-03-30T09:17:26.515Z,30.63
2019-03-30T09:19:54.977Z,29.50
2019-03-30T09:22:23.442Z,26.77
2019-03-30T09:24:52.011Z,28.43
2019-03-30T09:27:20.459Z,28.60
2019-03-30T09:29:48.923Z,27.50
2019-03-30T09:32:17.445Z,26.60
2019-03-30T09:34:45.972Z,30.03
2019-03-30T09:37:14.637Z,28.00
2019-03-30T09:39:43.205Z,27.27
2019-03-30T09:42:11.651Z,28.93
2019-03-30T09:44:40.120Z,29.47
2019-03-30T09:47:08.772Z,27.80
2019-03-30T09:49:37.314Z,26.37
2019-03-30T09:52:05.864Z,25.53
2019-03-30T09:54:34.432Z,28.33
2019-03-30T09:57:02.918Z,24.57
2019-03-30T09:59:31.460Z,28.10
2019-03-30T10:02:00.036Z,28.50
2019-03-30T10:04:28.498Z,27.17
2019-03-30T10:06:57.050Z,25.20
2019-03-30T10:09:25.560Z,24.90
2019-03-30T10:11:54.021Z,23.37
2019-03-30T10:14:22.500Z,23.07
2019-03-30T10:16:51.042Z,22.33
2019-03-30T10:19:19.502Z,27.40
2019-03-30T10:21:47.970Z,22.67
2019-03-30T10:24:16.547Z,19.50
2019-03-30T10:26:45.024Z,16.73
2019-03-30T10:29:13.493Z,16.47
2019-03-30T10:31:42.026Z,15.47
2019-03-30T10:34:11.098Z,14.80
2019-03-30T10:36:39.636Z,16.60
2019-03-30T10:39:08.686Z,12.67
2019-03-30T10:41:37.215Z,11.07
2019-03-30T10:44:05.678Z,11.37
2019-03-30T10:46:34.301Z,11.40
2019-03-30T10:49:02.745Z,11.63
2019-03-30T10:51:31.212Z,12.60
2019-03-30T10:53:59.802Z,12.90
2019-03-30T10:56:31.238Z,10.33
2019-03-30T10:58:59.776Z,10.47
2019-03-30T11:01:28.361Z,10.10
2019-03-30T11:03:56.830Z,13.13
2019-03-30T11:06:25.374Z,12.07
2019-03-30T11:08:53.884Z,13.97
2019-03-30T11:11:22.550Z,13.17
2019-03-30T11:13:51.125Z,12.60
2019-03-30T11:16:19.715Z,10.13
2019-03-30T11:19:07.653Z,11.57
2019-03-30T11:21:36.270Z,10.90
2019-03-30T11:24:06.627Z,10.90
2019-03-30T11:26:35.044Z,11.57
2019-03-30T11:29:03.609Z,11.30
2019-03-30T11:31:32.062Z,10.20
2019-03-30T11:34:00.518Z,13.37
2019-03-30T11:36:29.216Z,14.07
2019-03-30T11:38:57.758Z,11.73
2019-03-30T11:41:26.329Z,12.00
2019-03-30T11:43:54.896Z,11.07
2019-03-30T11:46:23.514Z,10.50
2019-03-30T11:48:52.123Z,10.17
2019-03-30T11:51:20.626Z,10.90
2019-03-30T11:53:49.088Z,10.80
2019-03-30T11:56:17.551Z,9.03
2019-03-30T11:58:46.119Z,10.07
2019-03-30T12:01:14.600Z,10.93
2019-03-30T12:03:43.136Z,12.23
2019-03-30T12:06:12.223Z,9.97
2019-03-30T12:08:40.695Z,11.27
2019-03-30T12:11:09.232Z,10.47
2019-03-30T12:13:37.815Z,10.97
2019-03-30T12:16:06.360Z,10.03
2019-03-30T12:18:34.892Z,12.60
2019-03-30T12:21:03.397Z,13.97
2019-03-30T12:23:31.973Z,13.43
2019-03-30T12:26:00.445Z,19.60
2019-03-30T12:28:29.095Z,15.27
2019-03-30T12:30:57.563Z,18.07
2019-03-30T12:33:26.027Z,16.27
2019-03-30T12:35:54.547Z,18.77
2019-03-30T12:38:23.090Z,22.47
2019-03-30T12:40:51.910Z,22.83
2019-03-30T12:43:20.424Z,24.23
2019-03-30T12:45:48.953Z,26.57
2019-03-30T12:48:17.443Z,26.67
2019-03-30T12:50:47.472Z,26.60
2019-03-30T12:53:15.963Z,29.27
2019-03-30T12:55:49.518Z,30.23
2019-03-30T12:58:14.864Z,31.73
2019-03-30T13:00:43.346Z,36.17
2019-03-30T13:03:11.884Z,37.77
2019-03-30T13:05:40.389Z,40.37
2019-03-30T13:08:08.850Z,37.77
2019-03-30T13:10:37.393Z,39.87
2019-03-30T13:13:06.196Z,37.20
2019-03-30T13:15:34.763Z,37.57
2019-03-30T13:18:03.374Z,37.57
2019-03-30T13:20:32.010Z,37.67
2019-03-30T13:23:00.576Z,36.40
2019-03-30T13:25:29.053Z,38.90
2019-03-30T13:27:57.789Z,34.70
2019-03-30T13:30:26.410Z,35.40
2019-03-30T13:32:54.988Z,40.47
2019-03-30T13:35:23.847Z,37.47
2019-03-30T13:37:52.534Z,37.13
2019-03-30T13:40:21.107Z,38.73
2019-03-30T13:42:49.693Z,39.33
2019-03-30T13:45:18.297Z,38.40
2019-03-30T13:47:46.776Z,39.07
2019-03-30T13:50:15.526Z,36.57
2019-03-30T13:52:44.113Z,39.20
2019-03-30T13:55:12.911Z,40.40
2019-03-30T13:57:41.440Z,35.87
2019-03-30T14:00:11.494Z,38.60
2019-03-30T14:02:40.229Z,36.70
2019-03-30T14:05:09.212Z,37.63
2019-03-30T14:07:37.713Z,44.70
2019-03-30T14:10:09.787Z,39.57
2019-03-30T14:12:38.593Z,40.63
2019-03-30T14:15:09.332Z,41.33
2019-03-30T14:17:37.783Z,45.03
2019-03-30T14:20:07.787Z,39.97
2019-03-30T14:22:37.242Z,45.13
2019-03-30T14:25:06.791Z,45.67
2019-03-30T14:27:35.478Z,48.33
2019-03-30T14:30:05.388Z,45.47
2019-03-30T14:32:33.926Z,49.17
2019-03-30T14:35:21.829Z,53.10
2019-03-30T14:37:50.387Z,51.53
2019-03-30T14:40:19.066Z,51.00
2019-03-30T14:42:47.682Z,60.63
2019-03-30T14:45:16.647Z,57.90
2019-03-30T14:47:45.704Z,59.17
2019-03-30T14:50:14.832Z,59.30
2019-03-30T14:52:43.373Z,58.07
2019-03-30T14:55:12.008Z,54.80
2019-03-30T14:57:40.544Z,55.67
2019-03-30T15:00:12.300Z,57.40
2019-03-30T15:02:40.832Z,63.50
2019-03-30T15:05:09.837Z,64.40
2019-03-30T15:07:38.483Z,64.33
2019-03-30T15:10:09.558Z,64.82
2019-03-30T15:12:38.632Z,60.45
2019-03-30T15:15:11.399Z,65.45
2019-03-30T15:17:40.930Z,61.10
2019-03-30T15:20:11.990Z,67.50
2019-03-30T15:22:40.804Z,65.87
2019-03-30T15:25:10.421Z,64.35
2019-03-30T15:27:39.096Z,65.12
2019-03-30T15:30:08.480Z,63.85
2019-03-30T15:32:37.095Z,62.35
2019-03-30T15:35:07.121Z,65.30
2019-03-30T15:37:35.734Z,62.70
2019-03-30T15:40:05.681Z,60.48
2019-03-30T15:42:34.346Z,59.93
2019-03-30T15:45:03.202Z,61.80
2019-03-30T15:47:33.256Z,59.70
2019-03-30T15:50:02.130Z,60.28
2019-03-30T15:52:30.725Z,62.95
2019-03-30T15:54:59.212Z,61.42
2019-03-30T15:57:27.725Z,60.25
2019-03-30T15:59:56.264Z,61.08
2019-03-30T16:02:24.821Z,61.50
2019-03-30T16:04:53.322Z,57.62
2019-03-30T16:07:21.857Z,61.02
2019-03-30T16:09:50.392Z,64.62
2019-03-30T16:12:18.906Z,60.63
2019-03-30T16:14:47.422Z,66.27
2019-03-30T16:17:16.211Z,62.40
2019-03-30T16:19:44.808Z,63.73
2019-03-30T16:22:16.513Z,66.73
2019-03-30T16:24:45.150Z,66.73
2019-03-30T16:27:27.801Z,67.67
2019-03-30T16:29:44.052Z,68.03
2019-03-30T16:32:14.209Z,68.37
2019-03-30T16:34:42.983Z,68.97
2019-03-30T16:37:11.532Z,70.70
2019-03-30T16:39:40.154Z,69.13
2019-03-30T16:42:08.787Z,67.20
2019-03-30T16:44:37.245Z,73.53
2019-03-30T16:47:05.720Z,70.70
2019-03-30T16:49:34.228Z,69.63
2019-03-30T16:52:02.720Z,70.77
2019-03-30T16:54:31.182Z,69.57
2019-03-30T16:56:59.770Z,75.30
2019-03-30T16:59:28.262Z,68.53
2019-03-30T17:01:56.881Z,75.43
2019-03-30T17:04:25.501Z,71.70
2019-03-30T17:06:54.025Z,75.27
2019-03-30T17:09:22.492Z,75.37
2019-03-30T17:11:51.017Z,79.30
2019-03-30T17:14:19.566Z,73.63
2019-03-30T17:16:48.056Z,70.10
2019-03-30T17:19:16.762Z,74.07
2019-03-30T17:21:45.235Z,74.30
2019-03-30T17:24:14.430Z,75.23
2019-03-30T17:26:43.033Z,73.20
2019-03-30T17:29:11.492Z,75.60
2019-03-30T17:31:40.050Z,69.43
2019-03-30T17:34:08.704Z,80.90
2019-03-30T17:36:37.270Z,78.27
2019-03-30T17:39:08.697Z,74.13
2019-03-30T17:41:37.226Z,79.67
2019-03-30T17:44:05.769Z,78.17
2019-03-30T17:46:34.328Z,75.17
2019-03-30T17:49:02.924Z,77.07
2019-03-30T17:51:31.452Z,70.30
2019-03-30T17:53:59.925Z,74.23
2019-03-30T17:56:28.425Z,79.00
2019-03-30T17:58:56.882Z,77.67
2019-03-30T18:01:25.344Z,76.53
2019-03-30T18:03:53.935Z,77.13
2019-03-30T18:06:22.483Z,78.27
2019-03-30T18:08:50.952Z,76.80
2019-03-30T18:11:19.466Z,75.50
2019-03-30T18:13:48.080Z,77.10
2019-03-30T18:16:16.632Z,79.93
2019-03-30T18:18:45.471Z,82.10
2019-03-30T18:21:13.965Z,81.57
2019-03-30T18:23:42.502Z,79.60
2019-03-30T18:26:11.329Z,77.20
2019-03-30T18:28:39.798Z,79.00
2019-03-30T18:31:08.327Z,75.50
2019-03-30T18:33:37.370Z,78.17
2019-03-30T18:36:05.851Z,88.50
2019-03-30T18:38:36.747Z,81.27
2019-03-30T18:41:05.643Z,82.27
2019-03-30T18:43:34.243Z,80.73
2019-03-30T18:46:02.796Z,81.93
2019-03-30T18:48:31.378Z,83.37
2019-03-30T18:51:00.680Z,85.67
2019-03-30T18:53:29.891Z,86.10
2019-03-30T18:55:58.464Z,86.20
2019-03-30T18:58:40.705Z,85.93
2019-03-30T19:00:57.118Z,86.80
2019-03-30T19:03:44.953Z,87.63
2019-03-30T19:06:13.956Z,84.07
2019-03-30T19:08:42.417Z,83.17
2019-03-30T19:11:10.942Z,84.03
2019-03-30T19:13:39.395Z,89.97
2019-03-30T19:16:07.871Z,85.33
2019-03-30T19:18:36.468Z,88.63
2019-03-30T19:21:05.078Z,88.40
2019-03-30T19:23:33.553Z,84.80
2019-03-30T19:26:02.062Z,90.93
2019-03-30T19:28:30.515Z,81.33
2019-03-30T19:30:58.976Z,67.83
2019-03-30T19:33:27.499Z,71.00
2019-03-30T19:35:56.026Z,67.67
2019-03-30T19:38:24.524Z,71.73
2019-03-30T19:40:53.084Z,64.57
2019-03-30T19:43:21.555Z,59.57
2019-03-30T19:45:50.109Z,60.80
2019-03-30T19:48:18.599Z,59.27
2019-03-30T19:50:47.136Z,59.10
2019-03-30T19:53:16.576Z,56.37
2019-03-30T19:55:45.144Z,60.77
2019-03-30T19:58:14.255Z,57.83
2019-03-30T20:00:42.874Z,55.07
2019-03-30T20:03:11.396Z,54.97
2019-03-30T20:05:40.119Z,52.57
2019-03-30T20:08:12.280Z,52.70
2019-03-30T20:10:38.954Z,48.60
2019-03-30T20:13:09.216Z,48.67
2019-03-30T20:15:37.740Z,45.20
2019-03-30T20:18:06.314Z,45.30
2019-03-30T20:20:34.781Z,45.57
2019-03-30T20:23:03.324Z,46.97
2019-03-30T20:25:32.053Z,37.80
2019-03-30T20:28:00.576Z,41.30
2019-03-30T20:30:29.043Z,38.87
2019-03-30T20:32:57.570Z,39.57
2019-03-30T20:35:26.049Z,40.27
2019-03-30T20:37:54.524Z,36.70
2019-03-30T20:40:23.892Z,38.67
2019-03-30T20:42:52.359Z,41.40
2019-03-30T20:45:20.981Z,41.23
2019-03-30T20:47:49.567Z,42.37
2019-03-30T20:50:18.185Z,40.10
2019-03-30T20:52:46.760Z,40.47
2019-03-30T20:55:15.441Z,39.77
2019-03-30T20:57:43.897Z,40.87
2019-03-30T21:00:13.636Z,42.63
2019-03-30T21:02:42.216Z,40.23
2019-03-30T21:05:11.315Z,43.80
2019-03-30T21:07:41.749Z,42.50
2019-03-30T21:10:10.757Z,42.60
2019-03-30T21:12:39.288Z,38.73
2019-03-30T21:15:08.857Z,40.27
2019-03-30T21:17:37.468Z,43.17
2019-03-30T21:20:06.448Z,41.43
2019-03-30T21:22:34.911Z,41.60
2019-03-30T21:25:04.068Z,45.53
2019-03-30T21:27:32.544Z,38.47
2019-03-30T21:30:01.019Z,41.20
2019-03-30T21:32:29.678Z,43.10
2019-03-30T21:34:58.209Z,42.33
2019-03-30T21:37:26.750Z,37.90
2019-03-30T21:39:55.289Z,39.13
2019-03-30T21:42:23.826Z,33.07
2019-03-30T21:44:52.276Z,37.07
2019-03-30T21:47:20.811Z,37.70
2019-03-30T21:49:49.514Z,32.40
2019-03-30T21:52:18.042Z,32.60
2019-03-30T21:54:46.579Z,30.73
2019-03-30T21:57:15.092Z,32.93
2019-03-30T21:59:43.581Z,35.17
2019-03-30T22:02:12.187Z,30.80
2019-03-30T22:04:40.781Z,29.97
2019-03-30T22:07:09.299Z,32.77
2019-03-30T22:09:38.567Z,32.93
2019-03-30T22:12:07.095Z,29.80
2019-03-30T22:14:35.549Z,31.80
2019-03-30T22:17:04.213Z,30.00
2019-03-30T22:19:32.683Z,28.27
2019-03-30T22:22:01.225Z,31.00
2019-03-30T22:24:29.803Z,30.03
2019-03-30T22:26:58.336Z,26.00
2019-03-30T22:29:26.795Z,20.17
2019-03-30T22:31:55.302Z,21.60
2019-03-30T22:34:23.768Z,18.47
2019-03-30T22:36:52.313Z,18.83
2019-03-30T22:39:20.828Z,18.50
2019-03-30T22:41:49.435Z,18.83
2019-03-30T22:44:17.894Z,16.43
2019-03-30T22:46:46.387Z,15.53
2019-03-30T22:49:14.859Z,20.23
2019-03-30T22:51:43.303Z,15.83
2019-03-30T22:54:12.170Z,17.20
2019-03-30T22:56:40.656Z,17.20
2019-03-30T22:59:09.145Z,13.57
2019-03-30T23:01:37.992Z,14.33
2019-03-30T23:04:06.445Z,13.00
2019-03-30T23:06:34.903Z,14.90
2019-03-30T23:09:05.207Z,14.70
2019-03-30T23:11:33.661Z,14.40
2019-03-30T23:14:02.114Z,13.50
2019-03-30T23:16:30.632Z,12.77
2019-03-30T23:18:59.083Z,14.57
2019-03-30T23:21:27.550Z,13.53
2019-03-30T23:23:56.237Z,14.30
2019-03-30T23:26:24.687Z,9.50
2019-03-30T23:28:53.215Z,10.50
2019-03-30T23:31:22.163Z,15.13
2019-03-30T23:33:50.667Z,11.33
2019-03-30T23:36:19.133Z,14.70
2019-03-30T23:38:47.706Z,12.87
2019-03-30T23:41:16.183Z,11.73
2019-03-30T23:43:44.717Z,11.63
2019-03-30T23:46:13.220Z,11.93
2019-03-30T23:48:41.764Z,10.83
2019-03-30T23:51:10.273Z,8.97
2019-03-30T23:53:38.789Z,8.57
2019-03-30T23:56:16.179Z,8.20
2019-03-30T23:58:44.691Z,9.00
